createdAt,value
2019-02-16T00:00:31.321Z,58.40
2019-02-16T00:02:59.611Z,58.30
2019-02-16T00:05:27.895Z,58.40
2019-02-16T00:07:56.187Z,58.60
2019-02-16T00:10:24.513Z,58.10
2019-02-16T00:12:52.827Z,57.90
2019-02-16T00:15:21.145Z,57.90
2019-02-16T00:17:49.510Z,58.30
2019-02-16T00:20:17.804Z,58.50
2019-02-16T00:22:46.863Z,59.00
2019-02-16T00:25:15.145Z,59.00
2019-02-16T00:27:43.547Z,59.80
2019-02-16T00:30:11.799Z,59.90
2019-02-16T00:32:40.122Z,59.80
2019-02-16T00:35:08.461Z,59.50
2019-02-16T00:37:36.812Z,59.50
2019-02-16T00:40:05.121Z,59.10
2019-02-16T00:42:33.375Z,58.80
2019-02-16T00:45:01.694Z,59.00
2019-02-16T00:47:30.840Z,59.40
2019-02-16T00:49:59.219Z,59.30
2019-02-16T00:52:27.588Z,59.90
2019-02-16T00:54:55.975Z,60.10
2019-02-16T00:57:24.396Z,62.00
2019-02-16T00:59:52.659Z,63.50
2019-02-16T01:02:21.028Z,63.70
2019-02-16T01:04:49.311Z,63.40
2019-02-16T01:07:18.356Z,63.50
2019-02-16T01:09:46.725Z,63.40
2019-02-16T01:12:15.064Z,63.00
2019-02-16T01:14:44.153Z,61.60
2019-02-16T01:17:13.307Z,61.40
2019-02-16T01:19:41.697Z,61.40
2019-02-16T01:22:10.067Z,61.00
2019-02-16T01:24:38.435Z,61.00
2019-02-16T01:27:06.820Z,61.50
2019-02-16T01:29:35.113Z,61.40
2019-02-16T01:32:03.471Z,61.60
2019-02-16T01:34:31.782Z,61.90
2019-02-16T01:37:00.135Z,62.30
2019-02-16T01:39:28.435Z,62.00
2019-02-16T01:41:57.541Z,60.90
2019-02-16T01:44:26.734Z,61.10
2019-02-16T01:46:55.805Z,61.10
2019-02-16T01:49:24.105Z,61.10
2019-02-16T01:51:53.800Z,62.10
2019-02-16T01:54:22.139Z,62.10
2019-02-16T01:56:50.395Z,61.30
2019-02-16T01:59:19.550Z,60.90
2019-02-16T02:01:47.890Z,60.90
2019-02-16T02:04:16.284Z,61.00
2019-02-16T02:06:44.785Z,61.10
2019-02-16T02:09:13.106Z,60.90
2019-02-16T02:11:41.408Z,61.90
2019-02-16T02:14:09.787Z,62.10
2019-02-16T02:16:38.034Z,62.10
2019-02-16T02:19:06.335Z,61.80
2019-02-16T02:21:40.911Z,61.50
2019-02-16T02:24:03.017Z,61.40
2019-02-16T02:26:31.299Z,61.50
2019-02-16T02:29:00.351Z,62.10
2019-02-16T02:31:28.656Z,62.10
2019-02-16T02:33:57.045Z,63.80
2019-02-16T02:36:25.399Z,65.50
2019-02-16T02:38:53.709Z,66.30
2019-02-16T02:41:22.761Z,65.90
2019-02-16T02:43:51.171Z,65.90
2019-02-16T02:46:19.437Z,64.90
2019-02-16T02:48:48.031Z,65.70
2019-02-16T02:51:16.197Z,66.40
2019-02-16T02:53:44.455Z,66.00
2019-02-16T02:56:12.751Z,66.70
2019-02-16T02:58:41.841Z,66.30
2019-02-16T03:01:10.188Z,66.20
2019-02-16T03:03:38.602Z,67.30
2019-02-16T03:06:06.834Z,67.90
2019-02-16T03:08:35.650Z,69.10
2019-02-16T03:11:04.035Z,69.00
2019-02-16T03:13:32.377Z,69.60
2019-02-16T03:16:00.701Z,70.30
2019-02-16T03:18:29.754Z,71.30
2019-02-16T03:20:58.149Z,71.30
2019-02-16T03:23:26.556Z,72.40
2019-02-16T03:26:00.029Z,72.90
2019-02-16T03:28:33.942Z,72.90
2019-02-16T03:31:24.512Z,72.90
2019-02-16T03:33:54.440Z,72.90
2019-02-16T03:36:39.465Z,73.00
2019-02-16T03:39:08.725Z,73.20
2019-02-16T03:41:37.109Z,73.20
2019-02-16T03:44:05.455Z,73.00
2019-02-16T03:46:33.761Z,71.90
2019-02-16T03:49:02.964Z,71.60
2019-02-16T03:51:32.036Z,72.50
2019-02-16T03:54:00.375Z,72.40
2019-02-16T03:56:28.658Z,73.90
2019-02-16T03:58:57.419Z,73.90
2019-02-16T04:01:25.701Z,72.40
2019-02-16T04:03:54.016Z,71.10
2019-02-16T04:06:22.281Z,71.20
2019-02-16T04:08:50.605Z,70.60
2019-02-16T04:11:19.639Z,70.00
2019-02-16T04:13:47.935Z,69.90
2019-02-16T04:16:16.234Z,70.50
2019-02-16T04:18:45.290Z,71.30
2019-02-16T04:21:13.630Z,71.30
2019-02-16T04:23:41.945Z,71.70
2019-02-16T04:26:10.331Z,72.20
2019-02-16T04:28:38.706Z,72.30
2019-02-16T04:31:07.079Z,71.10
2019-02-16T04:33:35.460Z,69.70
2019-02-16T04:36:03.791Z,68.60
2019-02-16T04:38:32.116Z,68.00
2019-02-16T04:41:00.415Z,69.30
2019-02-16T04:43:28.703Z,70.50
2019-02-16T04:45:57.893Z,71.70
2019-02-16T04:48:26.277Z,71.70
2019-02-16T04:50:55.364Z,71.50
2019-02-16T04:53:23.655Z,71.50
2019-02-16T04:55:52.694Z,71.00
2019-02-16T04:58:20.988Z,71.00
2019-02-16T05:00:49.351Z,71.10
2019-02-16T05:03:17.635Z,71.20
2019-02-16T05:05:46.111Z,71.30
2019-02-16T05:08:14.338Z,70.60
2019-02-16T05:10:43.476Z,69.70
2019-02-16T05:13:11.897Z,69.70
2019-02-16T05:15:40.163Z,69.20
2019-02-16T05:18:08.452Z,68.00
2019-02-16T05:20:36.738Z,67.90
2019-02-16T05:23:05.103Z,67.90
2019-02-16T05:25:34.177Z,69.50
2019-02-16T05:28:02.507Z,69.50
2019-02-16T05:30:30.817Z,69.90
2019-02-16T05:32:59.119Z,69.80
2019-02-16T05:35:28.208Z,69.00
2019-02-16T05:37:56.481Z,69.00
2019-02-16T05:40:24.831Z,69.60
2019-02-16T05:42:53.346Z,70.20
2019-02-16T05:45:21.639Z,70.60
2019-02-16T05:47:49.972Z,71.30
2019-02-16T05:50:18.265Z,71.80
2019-02-16T05:52:53.986Z,72.10
2019-02-16T05:55:14.937Z,72.40
2019-02-16T05:57:43.780Z,73.00
2019-02-16T06:00:12.080Z,73.30
2019-02-16T06:02:40.431Z,73.30
2019-02-16T06:05:08.695Z,72.90
2019-02-16T06:07:37.092Z,72.90
2019-02-16T06:10:05.416Z,72.30
2019-02-16T06:12:34.471Z,71.10
2019-02-16T06:15:02.766Z,71.10
2019-02-16T06:17:31.834Z,70.10
2019-02-16T06:20:00.357Z,70.00
2019-02-16T06:22:28.616Z,69.70
2019-02-16T06:24:56.928Z,70.10
2019-02-16T06:27:25.214Z,70.40
2019-02-16T06:29:53.531Z,70.50
2019-02-16T06:32:21.885Z,70.00
2019-02-16T06:34:50.192Z,69.80
2019-02-16T06:37:18.512Z,69.90
2019-02-16T06:39:47.631Z,71.60
2019-02-16T06:42:15.907Z,71.50
2019-02-16T06:44:44.224Z,72.20
2019-02-16T06:47:13.436Z,73.60
2019-02-16T06:49:42.479Z,74.00
2019-02-16T06:52:10.788Z,74.10
2019-02-16T06:54:39.847Z,73.30
2019-02-16T06:57:18.402Z,73.30
2019-02-16T06:59:46.666Z,73.20
2019-02-16T07:02:15.016Z,73.30
2019-02-16T07:04:43.316Z,73.10
2019-02-16T07:07:11.625Z,72.50
2019-02-16T07:09:39.908Z,72.70
2019-02-16T07:12:08.220Z,73.10
2019-02-16T07:14:36.507Z,73.60
2019-02-16T07:17:06.791Z,74.20
2019-02-16T07:19:35.811Z,74.50
2019-02-16T07:22:04.190Z,74.50
2019-02-16T07:24:32.473Z,74.40
2019-02-16T07:27:00.839Z,74.00
2019-02-16T07:29:29.127Z,74.70
2019-02-16T07:31:57.561Z,73.60
2019-02-16T07:34:25.869Z,73.80
2019-02-16T07:36:54.255Z,73.80
2019-02-16T07:39:22.541Z,74.20
2019-02-16T07:41:50.836Z,74.20
2019-02-16T07:44:34.793Z,73.90
2019-02-16T07:47:03.852Z,74.20
2019-02-16T07:49:32.127Z,74.20
2019-02-16T07:52:01.356Z,74.20
2019-02-16T07:54:30.400Z,73.90
2019-02-16T07:57:13.597Z,73.90
2019-02-16T07:59:46.605Z,73.90
2019-02-16T08:02:14.879Z,73.90
2019-02-16T08:04:44.591Z,74.00
2019-02-16T08:07:14.490Z,73.70
2019-02-16T08:09:47.651Z,73.30
2019-02-16T08:12:33.511Z,72.30
2019-02-16T08:15:02.724Z,72.30
2019-02-16T08:17:31.989Z,72.20
2019-02-16T08:20:21.070Z,71.70
2019-02-16T08:22:50.975Z,71.60
2019-02-16T08:25:38.044Z,71.40
2019-02-16T08:28:22.011Z,71.20
2019-02-16T08:30:55.990Z,70.50
2019-02-16T08:33:24.265Z,69.90
2019-02-16T08:36:09.364Z,68.90
2019-02-16T08:38:53.299Z,67.90
2019-02-16T08:44:16.576Z,66.60
2019-02-16T08:46:46.295Z,65.10
2019-02-16T08:49:15.355Z,63.60
2019-02-16T08:51:46.134Z,61.30
2019-02-16T08:54:14.411Z,59.00
2019-02-16T08:56:43.527Z,58.80
2019-02-16T08:59:12.591Z,57.90
2019-02-16T09:01:54.818Z,56.60
2019-02-16T09:04:26.539Z,56.00
2019-02-16T09:07:10.628Z,55.00
2019-02-16T09:09:54.665Z,53.70
2019-02-16T09:12:26.826Z,53.20
2019-02-16T09:17:55.334Z,51.40
2019-02-16T09:20:27.175Z,51.40
2019-02-16T09:22:57.433Z,50.00
2019-02-16T09:25:37.208Z,49.90
2019-02-16T09:28:21.296Z,49.90
2019-02-16T09:30:50.150Z,49.30
2019-02-16T09:33:18.473Z,49.10
2019-02-16T09:35:47.230Z,48.80
2019-02-16T09:38:17.986Z,48.70
2019-02-16T09:40:47.134Z,48.40
2019-02-16T09:43:26.135Z,47.80
2019-02-16T09:45:56.611Z,45.40
2019-02-16T09:48:42.728Z,45.30
2019-02-16T09:51:29.846Z,46.00
2019-02-16T09:54:10.861Z,46.80
2019-02-16T09:56:50.993Z,45.90
2019-02-16T09:59:21.663Z,43.10
2019-02-16T10:02:00.763Z,43.10
2019-02-16T10:04:33.473Z,43.70
2019-02-16T10:07:11.677Z,43.70
2019-02-16T10:12:40.642Z,40.90
2019-02-16T10:15:23.835Z,40.50
2019-02-16T10:17:54.102Z,39.50
2019-02-16T10:20:28.165Z,40.10
2019-02-16T10:25:54.959Z,40.20
2019-02-16T10:28:27.493Z,38.20
2019-02-16T10:31:01.592Z,38.70
2019-02-16T10:33:32.398Z,38.90
2019-02-16T10:36:01.501Z,36.70
2019-02-16T10:38:31.345Z,36.70
2019-02-16T10:41:05.347Z,36.60
2019-02-16T10:43:34.606Z,35.80
2019-02-16T10:46:04.126Z,34.90
2019-02-16T10:48:47.322Z,34.90
2019-02-16T10:51:21.240Z,34.30
2019-02-16T10:53:52.759Z,35.90
2019-02-16T10:56:25.639Z,35.80
2019-02-16T10:58:59.664Z,35.30
2019-02-16T11:01:28.734Z,36.00
2019-02-16T11:03:56.990Z,35.60
2019-02-16T11:06:26.206Z,34.20
2019-02-16T11:11:51.251Z,32.70
2019-02-16T11:14:29.435Z,32.70
2019-02-16T11:17:03.365Z,34.10
2019-02-16T11:19:48.510Z,34.40
2019-02-16T11:22:16.803Z,33.40
2019-02-16T11:24:45.543Z,33.50
2019-02-16T11:27:20.018Z,32.50
2019-02-16T11:29:53.895Z,32.60
2019-02-16T11:32:23.646Z,32.10
2019-02-16T11:34:56.387Z,32.70
2019-02-16T11:37:24.749Z,32.70
2019-02-16T11:39:53.898Z,32.30
2019-02-16T11:42:26.438Z,33.30
2019-02-16T11:44:55.636Z,32.60
2019-02-16T11:47:23.968Z,32.50
2019-02-16T11:49:57.304Z,32.70
2019-02-16T11:52:31.375Z,32.10
2019-02-16T11:55:17.314Z,32.30
2019-02-16T11:57:46.614Z,32.20
2019-02-16T12:00:20.727Z,31.20
2019-02-16T12:02:54.824Z,32.00
2019-02-16T12:05:25.668Z,33.30
2019-02-16T12:07:56.650Z,33.30
2019-02-16T12:10:26.741Z,32.90
2019-02-16T12:13:02.271Z,31.80
2019-02-16T12:15:32.151Z,31.80
2019-02-16T12:21:02.183Z,32.50
2019-02-16T12:23:31.415Z,33.00
2019-02-16T12:26:14.590Z,32.60
2019-02-16T12:28:45.879Z,32.20
2019-02-16T12:31:14.932Z,32.70
2019-02-16T12:33:49.031Z,32.50
2019-02-16T12:36:22.852Z,31.70
2019-02-16T12:38:52.138Z,32.40
2019-02-16T12:44:25.401Z,31.90
2019-02-16T12:46:54.666Z,32.80
2019-02-16T12:49:33.615Z,32.30
2019-02-16T12:52:16.785Z,32.20
2019-02-16T12:54:51.568Z,31.20
2019-02-16T12:57:23.525Z,31.20
2019-02-16T12:59:58.315Z,31.50
2019-02-16T13:02:39.367Z,31.60
2019-02-16T13:05:09.610Z,31.00
2019-02-16T13:10:37.782Z,30.30
2019-02-16T13:13:07.679Z,30.70
2019-02-16T13:15:39.551Z,32.30
2019-02-16T13:18:10.662Z,31.70
2019-02-16T13:20:39.751Z,30.60
2019-02-16T13:23:10.529Z,30.00
2019-02-16T13:25:39.311Z,30.00
2019-02-16T13:28:17.510Z,31.10
2019-02-16T13:30:50.318Z,31.60
2019-02-16T13:33:21.910Z,32.00
2019-02-16T13:35:50.807Z,32.00
2019-02-16T13:38:34.857Z,30.80
2019-02-16T13:41:03.241Z,30.00
2019-02-16T13:43:33.069Z,30.60
2019-02-16T13:46:02.299Z,30.60
2019-02-16T13:48:33.304Z,32.00
2019-02-16T13:51:07.383Z,32.00
2019-02-16T13:53:41.403Z,31.00
2019-02-16T13:59:04.732Z,32.00
2019-02-16T14:01:34.701Z,31.80
2019-02-16T14:04:20.379Z,31.80
2019-02-16T14:06:48.705Z,31.70
2019-02-16T14:09:20.251Z,33.20
2019-02-16T14:11:55.019Z,33.90
2019-02-16T14:14:34.999Z,33.90
2019-02-16T14:17:17.171Z,32.70
2019-02-16T14:19:46.283Z,31.80
2019-02-16T14:22:14.698Z,31.80
2019-02-16T14:24:43.554Z,33.20
2019-02-16T14:27:11.855Z,33.40
2019-02-16T14:29:40.243Z,33.50
2019-02-16T14:32:08.588Z,32.90
2019-02-16T14:34:37.063Z,32.70
2019-02-16T14:37:05.361Z,32.70
2019-02-16T14:39:33.619Z,32.90
2019-02-16T14:42:01.995Z,32.50
2019-02-16T14:44:30.307Z,33.10
2019-02-16T14:46:59.359Z,32.60
2019-02-16T14:49:27.739Z,33.10
2019-02-16T14:51:56.152Z,32.80
2019-02-16T14:54:24.490Z,32.30
2019-02-16T14:56:52.783Z,32.40
2019-02-16T14:59:21.080Z,32.10
2019-02-16T15:01:49.456Z,32.10
2019-02-16T15:04:17.739Z,32.10
2019-02-16T15:06:46.838Z,32.70
2019-02-16T15:09:15.914Z,32.40
2019-02-16T15:11:44.296Z,32.40
2019-02-16T15:14:12.597Z,32.70
2019-02-16T15:16:41.640Z,33.50
2019-02-16T15:19:09.960Z,33.50
2019-02-16T15:21:38.194Z,33.70
2019-02-16T15:24:06.613Z,34.10
2019-02-16T15:26:35.771Z,33.90
2019-02-16T15:29:04.044Z,33.90
2019-02-16T15:31:32.330Z,33.80
2019-02-16T15:34:00.619Z,33.80
2019-02-16T15:36:28.929Z,34.10
2019-02-16T15:38:57.277Z,34.10
2019-02-16T15:41:25.620Z,35.00
2019-02-16T15:43:53.895Z,35.00
2019-02-16T15:46:22.182Z,35.50
2019-02-16T15:48:50.546Z,36.20
2019-02-16T15:51:18.852Z,36.10
2019-02-16T15:53:47.106Z,36.30
2019-02-16T15:56:15.398Z,35.50
2019-02-16T15:58:43.758Z,37.00
2019-02-16T16:01:12.830Z,37.60
2019-02-16T16:03:47.043Z,37.60
2019-02-16T16:06:15.373Z,37.30
2019-02-16T16:09:03.420Z,38.60
2019-02-16T16:11:37.994Z,39.30
2019-02-16T16:14:08.915Z,39.20
2019-02-16T16:16:40.685Z,39.60
2019-02-16T16:19:28.709Z,39.70
2019-02-16T16:22:01.951Z,39.60
2019-02-16T16:24:41.093Z,39.50
2019-02-16T16:27:09.407Z,41.70
2019-02-16T16:29:52.601Z,41.80
2019-02-16T16:32:35.743Z,41.40
2019-02-16T16:35:14.025Z,42.00
2019-02-16T16:37:46.804Z,42.50
2019-02-16T16:40:15.070Z,43.30
2019-02-16T16:42:52.018Z,43.10
2019-02-16T16:45:21.901Z,43.80
2019-02-16T16:47:50.176Z,44.00
2019-02-16T16:50:29.269Z,44.00
2019-02-16T16:53:04.064Z,44.80
2019-02-16T16:55:33.283Z,44.40
2019-02-16T16:58:06.242Z,45.00
2019-02-16T17:00:36.979Z,45.40
2019-02-16T17:03:08.928Z,45.50
2019-02-16T17:05:43.027Z,45.80
2019-02-16T17:08:25.088Z,46.60
2019-02-16T17:10:57.812Z,46.60
2019-02-16T17:13:37.152Z,47.00
2019-02-16T17:16:11.140Z,47.50
2019-02-16T17:18:40.320Z,47.70
2019-02-16T17:21:24.238Z,48.50
2019-02-16T17:23:53.346Z,48.50
2019-02-16T17:26:27.624Z,48.30
2019-02-16T17:32:01.068Z,48.80
2019-02-16T17:34:33.824Z,49.20
2019-02-16T17:37:14.928Z,49.20
2019-02-16T17:39:46.721Z,49.60
2019-02-16T17:42:20.697Z,49.30
2019-02-16T17:45:04.717Z,49.50
2019-02-16T17:47:36.943Z,48.90
2019-02-16T17:50:06.836Z,48.70
2019-02-16T17:52:41.587Z,49.00
2019-02-16T17:55:15.681Z,49.00
2019-02-16T17:57:58.873Z,49.20
2019-02-16T18:00:32.025Z,49.30
2019-02-16T18:03:05.979Z,50.10
2019-02-16T18:05:35.164Z,51.00
2019-02-16T18:08:07.305Z,51.40
2019-02-16T18:10:35.598Z,51.60
2019-02-16T18:13:05.873Z,51.90
2019-02-16T18:15:35.911Z,51.90
2019-02-16T18:18:04.687Z,52.30
2019-02-16T18:20:36.471Z,52.30
2019-02-16T18:23:05.667Z,52.50
2019-02-16T18:25:34.908Z,52.70
2019-02-16T18:28:08.928Z,52.50
2019-02-16T18:30:52.075Z,53.00
2019-02-16T18:33:21.188Z,52.90
2019-02-16T18:35:55.247Z,52.80
2019-02-16T18:38:25.788Z,53.50
2019-02-16T18:40:54.138Z,53.40
2019-02-16T18:46:23.232Z,53.80
2019-02-16T18:49:08.314Z,53.30
2019-02-16T18:51:39.268Z,53.80
2019-02-16T18:54:13.352Z,53.70
2019-02-16T18:57:06.769Z,54.10
2019-02-16T18:59:46.058Z,53.80
2019-02-16T19:02:20.174Z,54.10
2019-02-16T19:04:54.234Z,55.00
2019-02-16T19:10:20.239Z,55.50
2019-02-16T19:13:07.156Z,55.70
2019-02-16T19:15:51.379Z,55.90
2019-02-16T19:18:38.626Z,55.20
2019-02-16T19:21:09.754Z,55.20
2019-02-16T19:23:42.366Z,55.60
2019-02-16T19:26:10.620Z,55.60
2019-02-16T19:28:42.367Z,55.90
2019-02-16T19:31:30.391Z,55.90
2019-02-16T19:34:01.327Z,56.10
2019-02-16T19:36:29.634Z,56.50
2019-02-16T19:39:01.533Z,57.30
2019-02-16T19:41:31.733Z,56.70
2019-02-16T19:44:04.706Z,57.10
2019-02-16T19:46:51.482Z,58.10
2019-02-16T19:49:25.432Z,58.10
2019-02-16T19:51:54.295Z,58.30
2019-02-16T19:54:39.039Z,59.20
2019-02-16T19:57:11.411Z,58.80
2019-02-16T19:59:57.382Z,59.90
2019-02-16T20:02:25.659Z,60.60
2019-02-16T20:04:54.479Z,60.50
2019-02-16T20:07:25.438Z,60.30
2019-02-16T20:09:59.451Z,60.70
2019-02-16T20:12:33.455Z,60.90
2019-02-16T20:15:17.548Z,61.30
2019-02-16T20:20:44.280Z,63.70
2019-02-16T20:23:16.435Z,65.40
2019-02-16T20:25:50.400Z,65.10
2019-02-16T20:28:19.504Z,64.60
2019-02-16T20:30:52.528Z,64.40
2019-02-16T20:33:21.736Z,64.60
2019-02-16T20:35:52.001Z,64.60
2019-02-16T20:38:21.603Z,64.80
2019-02-16T20:40:55.620Z,65.20
2019-02-16T20:43:24.126Z,65.10
2019-02-16T20:46:05.939Z,64.10
2019-02-16T20:48:37.836Z,64.10
2019-02-16T20:54:01.173Z,62.60
2019-02-16T20:56:33.987Z,62.30
2019-02-16T21:02:07.197Z,61.80
2019-02-16T21:04:40.478Z,61.50
2019-02-16T21:07:24.620Z,61.80
2019-02-16T21:10:02.827Z,62.20
2019-02-16T21:12:36.897Z,62.70
2019-02-16T21:15:22.719Z,64.00
2019-02-16T21:18:05.872Z,64.00
2019-02-16T21:20:34.611Z,63.40
2019-02-16T21:23:18.547Z,62.60
2019-02-16T21:25:52.459Z,61.40
2019-02-16T21:28:20.747Z,61.20
2019-02-16T21:30:52.865Z,61.10
2019-02-16T21:33:30.983Z,60.90
2019-02-16T21:36:00.108Z,61.60
2019-02-16T21:38:28.989Z,61.70
2019-02-16T21:41:04.001Z,63.10
2019-02-16T21:43:37.933Z,62.50
2019-02-16T21:46:07.433Z,63.30
2019-02-16T21:48:37.418Z,64.00
2019-02-16T21:51:20.593Z,64.00
2019-02-16T21:53:50.515Z,64.40
2019-02-16T21:56:25.490Z,63.90
2019-02-16T21:58:53.788Z,63.40
2019-02-16T22:01:26.661Z,62.80
2019-02-16T22:04:10.792Z,62.80
2019-02-16T22:06:54.710Z,62.90
2019-02-16T22:09:27.970Z,63.00
2019-02-16T22:12:16.049Z,62.70
2019-02-16T22:14:44.458Z,62.70
2019-02-16T22:17:12.748Z,62.90
2019-02-16T22:19:41.825Z,63.40
2019-02-16T22:22:10.147Z,63.40
2019-02-16T22:24:38.423Z,63.40
2019-02-16T22:27:06.732Z,63.90
2019-02-16T22:29:35.103Z,63.90
2019-02-16T22:32:03.493Z,64.10
2019-02-16T22:34:31.774Z,63.90
2019-02-16T22:37:00.135Z,63.70
2019-02-16T22:39:28.431Z,63.40
2019-02-16T22:41:56.737Z,62.50
2019-02-16T22:44:24.994Z,62.00
2019-02-16T22:46:54.161Z,62.30
2019-02-16T22:49:22.411Z,62.30
2019-02-16T22:51:50.671Z,61.80
2019-02-16T22:54:19.699Z,62.40
2019-02-16T22:56:48.076Z,62.40
2019-02-16T22:59:16.451Z,62.10
2019-02-16T23:01:44.732Z,62.00
2019-02-16T23:04:13.024Z,62.30
2019-02-16T23:06:41.425Z,62.50
2019-02-16T23:09:10.480Z,63.60
2019-02-16T23:11:38.775Z,63.60
2019-02-16T23:14:07.068Z,63.90
2019-02-16T23:16:36.132Z,64.80
2019-02-16T23:19:04.394Z,64.80
2019-02-16T23:21:32.675Z,64.10
2019-02-16T23:24:00.965Z,63.20
2019-02-16T23:26:29.307Z,63.10
2019-02-16T23:28:57.587Z,62.20
2019-02-16T23:31:25.979Z,61.60
2019-02-16T23:33:54.268Z,61.30
2019-02-16T23:36:22.628Z,61.60
2019-02-16T23:38:51.015Z,61.70
2019-02-16T23:41:19.385Z,62.00
2019-02-16T23:43:47.701Z,62.20
2019-02-16T23:46:16.043Z,61.00
2019-02-16T23:48:44.423Z,60.90
2019-02-16T23:51:12.706Z,60.70
2019-02-16T23:53:41.024Z,60.50
2019-02-16T23:56:10.204Z,60.40
2019-02-16T23:58:48.682Z,61.10
